Time;durP1;ratioP1;P1;durP2;ratioP2;P2;SDS_P1;SDS_P2;PMS_P1;PMS_P2;Temp;Humidity;BMP_temperature;BMP_pressure;BME280_temperature;BME280_humidity;BME280_pressure;Samples;Min_cycle;Max_cycle;Signal;HPM_P1;HPM_P2
2024/02/26 00:01:24;;;;;;;;;;;;;;;;;;5060444;28;19943;-75
2024/02/26 00:03:50;;;;;;;;;;;;;;;;;;5063558;28;19917;-76
2024/02/26 00:06:18;;;;;;;;;;;;;;;;;;5059093;28;19936;-76
2024/02/26 00:08:43;;;;;;;;;;;;;;;;;;5049256;28;20342;-76
2024/02/26 00:11:09;;;;;;;;;;;;;;;;;;5053554;28;19946;-76
2024/02/26 00:13:35;;;;;;;;;;;;;;;;;;5046992;28;19912;-76
2024/02/26 00:16:01;;;;;;;;;;;;;;;;;;5060338;28;19917;-76
2024/02/26 00:18:27;;;;;;;;;;;;;;;;;;5053450;28;19920;-76
2024/02/26 00:20:53;;;;;;;;;;;;;;;;;;5048844;28;20362;-76
2024/02/26 00:23:19;;;;;;;;;;;;;;;;;;5047704;28;19912;-76
2024/02/26 00:25:44;;;;;;;;;;;;;;;;;;5049116;28;19948;-76
2024/02/26 00:28:10;;;;;;;;;;;;;;;;;;5047559;28;20358;-76
2024/02/26 00:30:36;;;;;;;;;;;;;;;;;;5050616;28;19920;-76
2024/02/26 00:33:02;;;;;;;;;;;;;;;;;;5056987;28;19963;-76
2024/02/26 00:35:28;;;;;;;;;;;;;;;;;;5034570;28;19913;-75
2024/02/26 00:37:54;;;;;;;;;;;;;;;;;;5047865;28;20546;-75
2024/02/26 00:40:20;;;;;;;;;;;;;;;;;;5048025;28;19999;-75
2024/02/26 00:42:47;;;;;;;;;;;;;;;;;;5052017;28;19921;-75
2024/02/26 00:45:13;;;;;;;;;;;;;;;;;;5056720;28;19909;-74
2024/02/26 00:47:41;;;;;;;;;;;;;;;;;;5051821;28;19958;-76
2024/02/26 00:50:07;;;;;;;;;;;;;;;;;;5045788;28;19916;-75
2024/02/26 00:52:36;;;;;;;;;;;;;;;;;;5056019;28;19923;-75
2024/02/26 00:55:02;;;;;;;;;;;;;;;;;;5048928;28;19929;-76
2024/02/26 00:57:28;;;;;;;;;;;;;;;;;;5056019;28;20379;-76
2024/02/26 00:59:56;;;;;;;;;;;;;;;;;;5052016;28;19919;-75
2024/02/26 01:02:21;;;;;;;;;;;;;;;;;;5048791;28;19921;-76
2024/02/26 01:04:47;;;;;;;;;;;;;;;;;;5051565;28;20620;-76
2024/02/26 01:07:13;;;;;;;;;;;;;;;;;;5062119;28;19986;-75
2024/02/26 01:09:39;;;;;;;;;;;;;;;;;;5052459;28;20434;-76
2024/02/26 01:12:05;;;;;;;;;;;;;;;;;;5048824;28;20290;-75
2024/02/26 01:14:31;;;;;;;;;;;;;;;;;;5049193;28;19913;-75
2024/02/26 01:16:57;;;;;;;;;;;;;;;;;;5057828;28;20519;-76
2024/02/26 01:19:23;;;;;;;;;;;;;;;;;;5060914;28;19983;-75
2024/02/26 01:21:48;;;;;;;;;;;;;;;;;;5052582;28;19925;-75
2024/02/26 01:24:15;;;;;;;;;;;;;;;;;;5053570;28;19916;-75
2024/02/26 01:26:41;;;;;;;;;;;;;;;;;;5051862;28;19912;-75
2024/02/26 01:29:07;;;;;;;;;;;;;;;;;;5051816;28;19936;-75
2024/02/26 01:31:33;;;;;;;;;;;;;;;;;;5070017;28;19912;-75
2024/02/26 01:33:58;;;;;;;;;;;;;;;;;;5057366;28;20437;-75
2024/02/26 01:36:25;;;;;;;;;;;;;;;;;;5052372;28;20330;-75
2024/02/26 01:38:51;;;;;;;;;;;;;;;;;;5049104;28;19924;-76
2024/02/26 01:41:17;;;;;;;;;;;;;;;;;;5048462;28;19917;-76
2024/02/26 01:43:42;;;;;;;;;;;;;;;;;;5050758;28;19917;-75
2024/02/26 01:46:08;;;;;;;;;;;;;;;;;;5058486;28;20279;-76
2024/02/26 01:48:34;;;;;;;;;;;;;;;;;;5061922;28;19913;-76
2024/02/26 01:51:00;;;;;;;;;;;;;;;;;;5059812;28;19917;-75
2024/02/26 01:53:26;;;;;;;;;;;;;;;;;;5052210;28;19913;-75
2024/02/26 01:55:52;;;;;;;;;;;;;;;;;;5053943;28;20031;-75
2024/02/26 01:58:18;;;;;;;;;;;;;;;;;;5053049;28;19975;-76
2024/02/26 02:00:43;;;;;;;;;;;;;;;;;;5052913;28;19929;-76
2024/02/26 02:03:09;;;;;;;;;;;;;;;;;;5051665;28;20391;-76
2024/02/26 02:05:38;;;;;;;;;;;;;;;;;;5051400;28;20341;-75
2024/02/26 02:08:05;;;;;;;;;;;;;;;;;;5050508;28;19959;-76
2024/02/26 02:10:30;;;;;;;;;;;;;;;;;;5052602;28;19920;-76
2024/02/26 02:12:56;;;;;;;;;;;;;;;;;;5064255;28;19912;-76
2024/02/26 02:15:22;;;;;;;;;;;;;;;;;;5059525;28;20414;-76
2024/02/26 02:17:48;;;;;;;;;;;;;;;;;;5066023;28;20381;-76
2024/02/26 02:20:14;;;;;;;;;;;;;;;;;;5051758;28;19920;-76
2024/02/26 02:22:40;;;;;;;;;;;;;;;;;;5050036;28;19925;-76
2024/02/26 02:25:05;;;;;;;;;;;;;;;;;;5049819;28;20489;-76
2024/02/26 02:27:31;;;;;;;;;;;;;;;;;;5055509;28;19913;-76
2024/02/26 02:29:57;;;;;;;;;;;;;;;;;;5056812;28;20057;-75
2024/02/26 02:32:23;;;;;;;;;;;;;;;;;;5054657;28;19931;-76
2024/02/26 02:34:49;;;;;;;;;;;;;;;;;;5062880;28;19916;-76
2024/02/26 02:37:15;;;;;;;;;;;;;;;;;;5061222;28;20371;-76
2024/02/26 02:39:43;;;;;;;;;;;;;;;;;;5055203;28;19968;-76
2024/02/26 02:42:09;;;;;;;;;;;;;;;;;;5051829;28;20368;-76
2024/02/26 02:44:34;;;;;;;;;;;;;;;;;;5049429;28;19955;-75
2024/02/26 02:47:00;;;;;;;;;;;;;;;;;;5051166;28;19913;-75
2024/02/26 02:49:26;;;;;;;;;;;;;;;;;;5053420;28;19918;-76
2024/02/26 02:51:54;;;;;;;;;;;;;;;;;;5060379;28;19956;-76
2024/02/26 02:54:19;;;;;;;;;;;;;;;;;;5049486;28;19936;-76
2024/02/26 02:56:45;;;;;;;;;;;;;;;;;;5049658;28;19983;-76
2024/02/26 02:59:11;;;;;;;;;;;;;;;;;;5050768;28;19908;-76
2024/02/26 03:01:37;;;;;;;;;;;;;;;;;;5051734;28;19969;-75
2024/02/26 03:04:03;;;;;;;;;;;;;;;;;;5049030;28;20412;-76
2024/02/26 03:06:29;;;;;;;;;;;;;;;;;;5057741;28;19967;-76
2024/02/26 03:08:55;;;;;;;;;;;;;;;;;;5059477;28;19916;-76
2024/02/26 03:11:20;;;;;;;;;;;;;;;;;;5049227;28;19956;-76
2024/02/26 03:13:46;;;;;;;;;;;;;;;;;;5053488;28;19920;-75
2024/02/26 03:16:12;;;;;;;;;;;;;;;;;;5048737;28;19919;-75
2024/02/26 03:18:38;;;;;;;;;;;;;;;;;;5059226;28;20443;-75
2024/02/26 03:21:04;;;;;;;;;;;;;;;;;;5062497;28;20003;-75
2024/02/26 03:23:31;;;;;;;;;;;;;;;;;;5049046;28;19924;-75
2024/02/26 03:25:57;;;;;;;;;;;;;;;;;;5057048;28;19924;-75
2024/02/26 03:28:23;;;;;;;;;;;;;;;;;;5050039;28;19912;-75
2024/02/26 03:30:49;;;;;;;;;;;;;;;;;;5047934;28;19912;-75
2024/02/26 03:33:15;;;;;;;;;;;;;;;;;;5048924;28;19919;-75
2024/02/26 03:35:41;;;;;;;;;;;;;;;;;;5049042;28;19976;-75
2024/02/26 03:38:06;;;;;;;;;;;;;;;;;;5048841;28;19908;-75
2024/02/26 03:40:32;;;;;;;;;;;;;;;;;;5045589;28;19920;-75
2024/02/26 03:42:58;;;;;;;;;;;;;;;;;;5044495;28;19999;-75
2024/02/26 03:45:25;;;;;;;;;;;;;;;;;;5042509;28;19913;-75
2024/02/26 03:47:51;;;;;;;;;;;;;;;;;;5047152;28;19996;-75
2024/02/26 03:50:17;;;;;;;;;;;;;;;;;;5048595;28;20466;-75
2024/02/26 03:52:43;;;;;;;;;;;;;;;;;;5056555;28;19916;-76
2024/02/26 03:55:10;;;;;;;;;;;;;;;;;;5068532;28;20673;-75
2024/02/26 03:57:35;;;;;;;;;;;;;;;;;;5056812;28;19912;-75
2024/02/26 04:00:01;;;;;;;;;;;;;;;;;;5050152;28;19920;-75
2024/02/26 04:02:27;;;;;;;;;;;;;;;;;;5047965;28;19917;-75
2024/02/26 04:04:56;;;;;;;;;;;;;;;;;;5061857;28;19948;-77
2024/02/26 04:07:22;;;;;;;;;;;;;;;;;;5060001;28;19917;-75
2024/02/26 04:09:47;;;;;;;;;;;;;;;;;;5051286;28;19913;-75
2024/02/26 04:12:14;;;;;;;;;;;;;;;;;;5057849;28;19909;-75
2024/02/26 04:14:40;;;;;;;;;;;;;;;;;;5053954;28;19921;-75
2024/02/26 04:17:06;;;;;;;;;;;;;;;;;;5047778;28;20343;-76
2024/02/26 04:19:31;;;;;;;;;;;;;;;;;;5048332;28;19971;-75
2024/02/26 04:21:57;;;;;;;;;;;;;;;;;;5058072;28;19963;-75
2024/02/26 04:24:23;;;;;;;;;;;;;;;;;;5047991;28;19940;-75
2024/02/26 04:26:49;;;;;;;;;;;;;;;;;;5059937;28;20383;-76
2024/02/26 04:29:15;;;;;;;;;;;;;;;;;;5047476;28;19924;-75
2024/02/26 04:31:42;;;;;;;;;;;;;;;;;;5050274;28;19913;-75
2024/02/26 04:34:08;;;;;;;;;;;;;;;;;;5049213;28;19916;-77
2024/02/26 04:36:34;;;;;;;;;;;;;;;;;;5049713;28;19913;-76
2024/02/26 04:39:00;;;;;;;;;;;;;;;;;;5056799;28;19966;-76
2024/02/26 04:41:26;;;;;;;;;;;;;;;;;;5053377;28;20472;-76
2024/02/26 04:43:52;;;;;;;;;;;;;;;;;;5038595;28;20023;-76
2024/02/26 04:46:18;;;;;;;;;;;;;;;;;;5049132;28;20413;-76
2024/02/26 04:48:46;;;;;;;;;;;;;;;;;;5054321;28;19952;-76
2024/02/26 04:51:12;;;;;;;;;;;;;;;;;;5049518;28;20369;-77
2024/02/26 04:53:38;;;;;;;;;;;;;;;;;;5058827;28;20062;-77
2024/02/26 04:56:04;;;;;;;;;;;;;;;;;;5047349;28;19916;-76
2024/02/26 04:58:30;;;;;;;;;;;;;;;;;;5055341;28;20317;-76
2024/02/26 05:00:56;;;;;;;;;;;;;;;;;;5060327;28;20042;-76
2024/02/26 05:03:21;;;;;;;;;;;;;;;;;;5050722;28;19908;-76
2024/02/26 05:05:47;;;;;;;;;;;;;;;;;;5050777;28;19920;-77
2024/02/26 05:08:13;;;;;;;;;;;;;;;;;;5059116;28;19947;-77
2024/02/26 05:10:40;;;;;;;;;;;;;;;;;;5055399;28;20278;-77
2024/02/26 05:13:06;;;;;;;;;;;;;;;;;;5051732;28;19913;-77
2024/02/26 05:15:32;;;;;;;;;;;;;;;;;;5059218;28;19926;-76
2024/02/26 05:17:58;;;;;;;;;;;;;;;;;;5050158;28;19975;-76
2024/02/26 05:20:24;;;;;;;;;;;;;;;;;;5052033;28;20435;-76
2024/02/26 05:22:50;;;;;;;;;;;;;;;;;;5058921;28;20007;-76
2024/02/26 05:25:16;;;;;;;;;;;;;;;;;;5040321;28;19913;-76
2024/02/26 05:27:42;;;;;;;;;;;;;;;;;;5053942;28;19966;-76
2024/02/26 05:30:08;;;;;;;;;;;;;;;;;;5058229;28;19912;-76
2024/02/26 05:32:34;;;;;;;;;;;;;;;;;;5062114;28;19913;-75
2024/02/26 05:35:00;;;;;;;;;;;;;;;;;;5057261;28;19923;-74
2024/02/26 05:37:25;;;;;;;;;;;;;;;;;;5051710;28;19913;-75
2024/02/26 05:39:52;;;;;;;;;;;;;;;;;;5049734;28;19936;-75
2024/02/26 05:42:17;;;;;;;;;;;;;;;;;;5044577;28;19917;-75
2024/02/26 05:44:43;;;;;;;;;;;;;;;;;;5041157;28;20295;-76
2024/02/26 05:47:09;;;;;;;;;;;;;;;;;;5047754;28;19921;-76
2024/02/26 05:49:35;;;;;;;;;;;;;;;;;;5049506;28;19924;-75
2024/02/26 05:52:01;;;;;;;;;;;;;;;;;;5055641;28;20298;-75
2024/02/26 05:54:27;;;;;;;;;;;;;;;;;;5037468;28;19954;-75
2024/02/26 05:56:53;;;;;;;;;;;;;;;;;;5050528;28;19920;-75
2024/02/26 05:59:19;;;;;;;;;;;;;;;;;;5049569;28;19913;-75
2024/02/26 06:01:45;;;;;;;;;;;;;;;;;;5050252;28;19928;-75
2024/02/26 06:04:12;;;;;;;;;;;;;;;;;;5046639;28;19916;-75
2024/02/26 06:06:38;;;;;;;;;;;;;;;;;;5046715;28;20009;-76
2024/02/26 06:09:05;;;;;;;;;;;;;;;;;;5054241;28;20363;-75
2024/02/26 06:11:30;;;;;;;;;;;;;;;;;;5049956;28;19913;-75
2024/02/26 06:13:56;;;;;;;;;;;;;;;;;;5050355;28;21053;-76
2024/02/26 06:16:22;;;;;;;;;;;;;;;;;;5044122;28;20354;-76
2024/02/26 06:18:48;;;;;;;;;;;;;;;;;;5049394;28;19917;-75
2024/02/26 06:21:14;;;;;;;;;;;;;;;;;;5049928;28;20279;-75
2024/02/26 06:23:40;;;;;;;;;;;;;;;;;;5048032;28;19928;-75
2024/02/26 06:26:06;;;;;;;;;;;;;;;;;;5060119;28;19944;-76
2024/02/26 06:28:33;;;;;;;;;;;;;;;;;;5050178;28;19909;-76
2024/02/26 06:30:59;;;;;;;;;;;;;;;;;;5050550;28;19916;-76
2024/02/26 06:33:25;;;;;;;;;;;;;;;;;;5065668;28;20007;-76
2024/02/26 06:35:51;;;;;;;;;;;;;;;;;;5049244;28;19924;-76
2024/02/26 06:38:17;;;;;;;;;;;;;;;;;;5049236;28;19912;-76
2024/02/26 06:40:43;;;;;;;;;;;;;;;;;;5052589;28;19976;-76
2024/02/26 06:43:09;;;;;;;;;;;;;;;;;;5043771;28;20027;-75
2024/02/26 06:45:35;;;;;;;;;;;;;;;;;;5038324;28;24731;-74
2024/02/26 06:48:00;;;;;;;;;;;;;;;;;;5041389;28;19917;-76
2024/02/26 06:50:26;;;;;;;;;;;;;;;;;;5041570;28;19927;-76
2024/02/26 06:52:52;;;;;;;;;;;;;;;;;;5038780;28;20390;-75
2024/02/26 06:55:18;;;;;;;;;;;;;;;;;;5035561;28;19982;-76
2024/02/26 06:57:44;;;;;;;;;;;;;;;;;;5038795;28;20008;-75
2024/02/26 07:00:14;;;;;;;;;;;;;;;;;;5039469;28;19913;-75
2024/02/26 07:02:40;;;;;;;;;;;;;;;;;;5039604;28;20019;-75
2024/02/26 07:05:06;;;;;;;;;;;;;;;;;;5039630;28;20148;-75
2024/02/26 07:07:32;;;;;;;;;;;;;;;;;;5038711;28;19909;-75
2024/02/26 07:09:58;;;;;;;;;;;;;;;;;;5040436;28;20382;-77
2024/02/26 07:12:24;;;;;;;;;;;;;;;;;;5041079;28;19921;-76
2024/02/26 07:14:50;;;;;;;;;;;;;;;;;;5039629;28;19917;-75
2024/02/26 07:17:16;;;;;;;;;;;;;;;;;;5038808;28;19910;-76
2024/02/26 07:19:42;;;;;;;;;;;;;;;;;;5039328;28;19920;-76
2024/02/26 07:22:08;;;;;;;;;;;;;;;;;;5039327;28;19917;-75
2024/02/26 07:24:33;;;;;;;;;;;;;;;;;;5039013;28;19980;-75
2024/02/26 07:26:59;;;;;;;;;;;;;;;;;;5041444;28;19921;-75
2024/02/26 07:29:25;;;;;;;;;;;;;;;;;;5039445;28;20407;-75
2024/02/26 07:31:51;;;;;;;;;;;;;;;;;;5041180;28;20512;-74
2024/02/26 07:34:17;;;;;;;;;;;;;;;;;;5044668;28;19920;-79
2024/02/26 07:36:43;;;;;;;;;;;;;;;;;;5044539;28;19952;-75
2024/02/26 07:39:08;;;;;;;;;;;;;;;;;;5048548;28;19912;-76
2024/02/26 07:41:34;;;;;;;;;;;;;;;;;;5046538;28;19923;-76
2024/02/26 07:44:00;;;;;;;;;;;;;;;;;;5048654;28;19913;-76
2024/02/26 07:46:26;;;;;;;;;;;;;;;;;;5048434;28;20370;-77
2024/02/26 07:48:52;;;;;;;;;;;;;;;;;;5048179;28;20391;-77
2024/02/26 07:51:19;;;;;;;;;;;;;;;;;;5048279;28;20303;-76
2024/02/26 07:53:44;;;;;;;;;;;;;;;;;;5048614;28;19992;-77
2024/02/26 07:56:10;;;;;;;;;;;;;;;;;;5047833;28;20007;-77
2024/02/26 07:58:36;;;;;;;;;;;;;;;;;;5048466;28;19939;-77
2024/02/26 08:01:02;;;;;;;;;;;;;;;;;;5047763;28;19921;-76
2024/02/26 08:03:28;;;;;;;;;;;;;;;;;;5048550;28;19992;-76
2024/02/26 08:05:54;;;;;;;;;;;;;;;;;;5047701;28;19913;-76
2024/02/26 08:08:20;;;;;;;;;;;;;;;;;;5047844;28;19928;-75
2024/02/26 08:10:46;;;;;;;;;;;;;;;;;;5047865;28;19913;-76
2024/02/26 08:13:12;;;;;;;;;;;;;;;;;;5048010;28;20046;-75
2024/02/26 08:15:38;;;;;;;;;;;;;;;;;;5047790;28;20049;-76
2024/02/26 08:18:04;;;;;;;;;;;;;;;;;;5047330;28;19920;-77
2024/02/26 08:20:30;;;;;;;;;;;;;;;;;;5047915;28;19917;-76
2024/02/26 08:22:56;;;;;;;;;;;;;;;;;;5047782;28;19914;-76
2024/02/26 08:25:22;;;;;;;;;;;;;;;;;;5047743;28;19913;-77
2024/02/26 08:27:48;;;;;;;;;;;;;;;;;;5047739;28;19921;-77
2024/02/26 08:30:16;;;;;;;;;;;;;;;;;;5048397;28;19912;-77
2024/02/26 08:32:42;;;;;;;;;;;;;;;;;;5048958;28;20003;-78
2024/02/26 08:35:08;;;;;;;;;;;;;;;;;;5051065;28;19995;-77
2024/02/26 08:37:34;;;;;;;;;;;;;;;;;;5051737;28;20340;-76
2024/02/26 08:40:00;;;;;;;;;;;;;;;;;;5052233;28;20289;-77
2024/02/26 08:42:26;;;;;;;;;;;;;;;;;;5051770;28;19987;-77
2024/02/26 08:44:51;;;;;;;;;;;;;;;;;;5051919;28;19959;-77
2024/02/26 08:47:17;;;;;;;;;;;;;;;;;;5051365;28;19913;-78
2024/02/26 08:49:43;;;;;;;;;;;;;;;;;;5052213;28;19913;-78
2024/02/26 08:52:09;;;;;;;;;;;;;;;;;;5051554;28;19917;-78
2024/02/26 08:54:35;;;;;;;;;;;;;;;;;;5051813;28;19909;-77
2024/02/26 08:57:01;;;;;;;;;;;;;;;;;;5051420;28;19967;-78
2024/02/26 08:59:27;;;;;;;;;;;;;;;;;;5051528;28;20299;-78
2024/02/26 09:01:53;;;;;;;;;;;;;;;;;;5051341;28;19921;-77
2024/02/26 09:04:18;;;;;;;;;;;;;;;;;;5051558;28;19952;-78
2024/02/26 09:06:44;;;;;;;;;;;;;;;;;;5051713;28;19913;-78
2024/02/26 09:09:10;;;;;;;;;;;;;;;;;;5051346;28;20472;-78
2024/02/26 09:11:36;;;;;;;;;;;;;;;;;;5050800;28;20351;-78
2024/02/26 09:14:03;;;;;;;;;;;;;;;;;;5051134;28;19912;-77
2024/02/26 09:16:29;;;;;;;;;;;;;;;;;;5051365;28;19919;-77
2024/02/26 09:18:55;;;;;;;;;;;;;;;;;;5051025;28;19909;-77
2024/02/26 09:21:23;;;;;;;;;;;;;;;;;;5050810;28;19920;-77
2024/02/26 09:23:49;;;;;;;;;;;;;;;;;;5050972;28;19909;-78
2024/02/26 09:26:15;;;;;;;;;;;;;;;;;;5051595;28;19915;-77
2024/02/26 09:28:40;;;;;;;;;;;;;;;;;;5051124;28;19958;-77
2024/02/26 09:31:06;;;;;;;;;;;;;;;;;;5050297;28;19917;-78
2024/02/26 09:33:32;;;;;;;;;;;;;;;;;;5052591;28;19916;-77
2024/02/26 09:36:00;;;;;;;;;;;;;;;;;;5051084;28;19974;-78
2024/02/26 09:38:25;;;;;;;;;;;;;;;;;;5050924;28;19909;-77
2024/02/26 09:40:51;;;;;;;;;;;;;;;;;;5050726;28;19909;-78
2024/02/26 09:43:17;;;;;;;;;;;;;;;;;;5050471;28;20432;-77
2024/02/26 09:45:43;;;;;;;;;;;;;;;;;;5051452;28;20337;-78
2024/02/26 09:48:09;;;;;;;;;;;;;;;;;;5050789;28;19909;-78
2024/02/26 09:50:35;;;;;;;;;;;;;;;;;;5050732;28;20007;-78
2024/02/26 09:53:02;;;;;;;;;;;;;;;;;;5050510;28;20028;-77
2024/02/26 09:55:28;;;;;;;;;;;;;;;;;;5050321;28;19936;-77
2024/02/26 09:57:54;;;;;;;;;;;;;;;;;;5050122;28;20403;-77
2024/02/26 10:00:20;;;;;;;;;;;;;;;;;;5050253;28;19955;-78
2024/02/26 10:02:46;;;;;;;;;;;;;;;;;;5043798;28;19932;-78
2024/02/26 10:05:12;;;;;;;;;;;;;;;;;;5067894;28;19919;-78
2024/02/26 10:07:38;;;;;;;;;;;;;;;;;;5070569;28;19913;-78
2024/02/26 10:10:04;;;;;;;;;;;;;;;;;;5070233;28;19912;-78
2024/02/26 10:12:31;;;;;;;;;;;;;;;;;;5070676;28;19909;-79
2024/02/26 10:14:56;;;;;;;;;;;;;;;;;;5070315;28;19998;-78
2024/02/26 10:17:22;;;;;;;;;;;;;;;;;;5069994;28;20585;-78
2024/02/26 10:19:49;;;;;;;;;;;;;;;;;;5070087;28;19916;-78
2024/02/26 10:22:15;;;;;;;;;;;;;;;;;;5070545;28;19912;-78
2024/02/26 10:24:41;;;;;;;;;;;;;;;;;;5069820;28;20382;-79
2024/02/26 10:27:07;;;;;;;;;;;;;;;;;;5069325;28;20631;-79
2024/02/26 10:29:32;;;;;;;;;;;;;;;;;;5069062;28;19920;-79
2024/02/26 10:31:58;;;;;;;;;;;;;;;;;;5070048;28;19909;-79
2024/02/26 10:34:25;;;;;;;;;;;;;;;;;;5069736;28;19913;-79
2024/02/26 10:36:51;;;;;;;;;;;;;;;;;;5069893;28;19963;-78
2024/02/26 10:39:17;;;;;;;;;;;;;;;;;;5069890;28;19991;-79
2024/02/26 10:41:43;;;;;;;;;;;;;;;;;;5069271;28;19924;-78
2024/02/26 10:44:10;;;;;;;;;;;;;;;;;;5068585;28;19912;-79
2024/02/26 10:46:36;;;;;;;;;;;;;;;;;;5069667;28;19974;-78
2024/02/26 10:49:02;;;;;;;;;;;;;;;;;;5069610;28;20359;-78
2024/02/26 10:51:28;;;;;;;;;;;;;;;;;;5069276;28;20340;-78
2024/02/26 10:53:54;;;;;;;;;;;;;;;;;;5068983;28;19908;-78
2024/02/26 10:56:19;;;;;;;;;;;;;;;;;;5068653;28;20284;-79
2024/02/26 10:58:45;;;;;;;;;;;;;;;;;;5069611;28;19908;-79
2024/02/26 11:01:11;;;;;;;;;;;;;;;;;;5068333;28;19925;-78
2024/02/26 11:03:38;;;;;;;;;;;;;;;;;;5069282;28;19913;-79
2024/02/26 11:06:04;;;;;;;;;;;;;;;;;;5069386;28;19916;-78
2024/02/26 11:08:30;;;;;;;;;;;;;;;;;;5069771;28;19912;-78
2024/02/26 11:10:56;;;;;;;;;;;;;;;;;;5068831;28;20433;-78
2024/02/26 11:13:22;;;;;;;;;;;;;;;;;;5068216;28;19920;-78
2024/02/26 11:15:48;;;;;;;;;;;;;;;;;;5069380;28;19912;-78
2024/02/26 11:18:14;;;;;;;;;;;;;;;;;;5069549;28;19916;-81
2024/02/26 11:20:40;;;;;;;;;;;;;;;;;;5068866;28;20333;-78
2024/02/26 11:23:06;;;;;;;;;;;;;;;;;;5068675;28;20306;-78
2024/02/26 11:25:32;;;;;;;;;;;;;;;;;;5069403;28;19914;-78
2024/02/26 11:27:58;;;;;;;;;;;;;;;;;;5068736;28;20363;-78
2024/02/26 11:30:23;;;;;;;;;;;;;;;;;;5068306;28;20114;-79
2024/02/26 11:32:50;;;;;;;;;;;;;;;;;;5068359;28;19968;-78
2024/02/26 11:35:17;;;;;;;;;;;;;;;;;;5068701;28;20426;-79
2024/02/26 11:37:43;;;;;;;;;;;;;;;;;;5068856;28;20367;-78
2024/02/26 11:40:09;;;;;;;;;;;;;;;;;;5068825;28;19970;-78
2024/02/26 11:42:35;;;;;;;;;;;;;;;;;;5064600;28;19924;-77
2024/02/26 11:45:01;;;;;;;;;;;;;;;;;;5064629;28;19959;-78
2024/02/26 11:47:29;;;;;;;;;;;;;;;;;;5065229;28;21396;-77
2024/02/26 11:49:54;;;;;;;;;;;;;;;;;;5068227;28;19913;-84
2024/02/26 11:52:20;;;;;;;;;;;;;;;;;;5068333;28;19921;-77
2024/02/26 11:54:46;;;;;;;;;;;;;;;;;;5062344;28;19916;-78
2024/02/26 11:57:12;;;;;;;;;;;;;;;;;;5067007;28;19919;-77
2024/02/26 11:59:38;;;;;;;;;;;;;;;;;;5064729;28;20370;-77
2024/02/26 12:02:04;;;;;;;;;;;;;;;;;;5063085;28;19921;-77
2024/02/26 12:04:30;;;;;;;;;;;;;;;;;;5061904;28;20405;-77
2024/02/26 12:06:56;;;;;;;;;;;;;;;;;;5065382;28;20282;-77
2024/02/26 12:09:22;;;;;;;;;;;;;;;;;;5064854;28;19952;-78
2024/02/26 12:11:48;;;;;;;;;;;;;;;;;;5065675;28;19962;-78
2024/02/26 12:14:13;;;;;;;;;;;;;;;;;;5067465;28;19912;-78
2024/02/26 12:16:39;;;;;;;;;;;;;;;;;;5067700;28;19919;-77
2024/02/26 12:19:06;;;;;;;;;;;;;;;;;;5066427;28;19999;-77
2024/02/26 12:21:32;;;;;;;;;;;;;;;;;;5067863;28;19916;-77
2024/02/26 12:23:57;;;;;;;;;;;;;;;;;;5067468;28;20003;-82
2024/02/26 12:26:23;;;;;;;;;;;;;;;;;;5068079;28;19908;-81
2024/02/26 12:28:49;;;;;;;;;;;;;;;;;;5067125;28;19958;-80
2024/02/26 12:31:15;;;;;;;;;;;;;;;;;;5068698;28;20011;-82
2024/02/26 12:33:41;;;;;;;;;;;;;;;;;;5067465;28;19919;-83
2024/02/26 12:36:07;;;;;;;;;;;;;;;;;;5067760;28;19916;-85
2024/02/26 12:38:35;;;;;;;;;;;;;;;;;;5068073;28;19923;-81
2024/02/26 12:41:02;;;;;;;;;;;;;;;;;;5064959;28;19920;-81
2024/02/26 12:43:28;;;;;;;;;;;;;;;;;;5067965;28;19946;-82
2024/02/26 12:45:54;;;;;;;;;;;;;;;;;;5067803;28;19962;-81
2024/02/26 12:48:20;;;;;;;;;;;;;;;;;;5068139;28;20180;-84
2024/02/26 12:50:47;;;;;;;;;;;;;;;;;;5067543;28;19912;-77
2024/02/26 12:53:12;;;;;;;;;;;;;;;;;;5067712;28;20007;-80
2024/02/26 12:55:42;;;;;;;;;;;;;;;;;;5068408;28;20379;-80
2024/02/26 12:58:07;;;;;;;;;;;;;;;;;;5067874;28;20679;-80
2024/02/26 13:00:33;;;;;;;;;;;;;;;;;;5067400;28;20007;-80
2024/02/26 13:02:59;;;;;;;;;;;;;;;;;;5067997;28;19921;-80
2024/02/26 13:05:25;;;;;;;;;;;;;;;;;;5063236;28;20011;-78
2024/02/26 13:07:52;;;;;;;;;;;;;;;;;;5056562;28;19913;-76
2024/02/26 13:10:18;;;;;;;;;;;;;;;;;;5067950;28;19945;-78
2024/02/26 13:12:44;;;;;;;;;;;;;;;;;;5064462;28;21054;-75
2024/02/26 13:15:11;;;;;;;;;;;;;;;;;;5061731;28;19921;-77
2024/02/26 13:17:37;;;;;;;;;;;;;;;;;;5060195;28;19920;-76
2024/02/26 13:20:03;;;;;;;;;;;;;;;;;;5065565;28;19935;-77
2024/02/26 13:22:33;;;;;;;;;;;;;;;;;;5061911;28;19924;-77
2024/02/26 13:24:59;;;;;;;;;;;;;;;;;;5064259;28;19958;-76
2024/02/26 13:27:24;;;;;;;;;;;;;;;;;;5063057;28;19912;-77
2024/02/26 13:29:50;;;;;;;;;;;;;;;;;;5062448;28;19927;-77
2024/02/26 13:32:16;;;;;;;;;;;;;;;;;;5061715;28;19967;-77
2024/02/26 13:34:43;;;;;;;;;;;;;;;;;;5060397;28;19921;-77
2024/02/26 13:37:09;;;;;;;;;;;;;;;;;;5067069;28;20395;-78
2024/02/26 13:39:35;;;;;;;;;;;;;;;;;;5062364;28;20329;-79
2024/02/26 13:42:00;;;;;;;;;;;;;;;;;;5062436;28;19928;-78
2024/02/26 13:44:26;;;;;;;;;;;;;;;;;;5065233;28;19927;-77
2024/02/26 13:46:52;;;;;;;;;;;;;;;;;;5061088;28;19912;-77
2024/02/26 13:49:18;;;;;;;;;;;;;;;;;;5060981;28;19916;-77
2024/02/26 13:51:44;;;;;;;;;;;;;;;;;;5060822;28;19925;-78
2024/02/26 13:54:10;;;;;;;;;;;;;;;;;;5062754;28;20387;-77
2024/02/26 13:56:36;;;;;;;;;;;;;;;;;;5062805;28;21005;-78
2024/02/26 13:59:02;;;;;;;;;;;;;;;;;;5061236;28;19960;-77
2024/02/26 14:01:28;;;;;;;;;;;;;;;;;;5060958;28;19972;-78
2024/02/26 14:03:57;;;;;;;;;;;;;;;;;;5043395;28;19919;-77
2024/02/26 14:06:23;;;;;;;;;;;;;;;;;;5062207;28;19921;-77
2024/02/26 14:08:49;;;;;;;;;;;;;;;;;;5062924;28;19927;-78
2024/02/26 14:11:15;;;;;;;;;;;;;;;;;;5065334;28;19912;-79
2024/02/26 14:13:40;;;;;;;;;;;;;;;;;;5062216;28;19970;-80
2024/02/26 14:16:06;;;;;;;;;;;;;;;;;;5063304;28;20328;-79
2024/02/26 14:18:32;;;;;;;;;;;;;;;;;;5063989;28;19924;-78
2024/02/26 14:20:58;;;;;;;;;;;;;;;;;;5061511;28;19921;-78
2024/02/26 14:23:24;;;;;;;;;;;;;;;;;;5062404;28;19920;-79
2024/02/26 14:25:50;;;;;;;;;;;;;;;;;;5061437;28;20129;-79
2024/02/26 14:28:15;;;;;;;;;;;;;;;;;;5060053;28;19919;-79
2024/02/26 14:30:43;;;;;;;;;;;;;;;;;;5055586;28;19921;-78
2024/02/26 14:33:09;;;;;;;;;;;;;;;;;;5046471;28;19920;-78
2024/02/26 14:35:35;;;;;;;;;;;;;;;;;;5061961;28;20454;-78
2024/02/26 14:38:01;;;;;;;;;;;;;;;;;;5061835;28;20494;-77
2024/02/26 14:40:27;;;;;;;;;;;;;;;;;;5060582;28;19924;-77
2024/02/26 14:42:53;;;;;;;;;;;;;;;;;;5061118;28;19917;-78
2024/02/26 14:45:19;;;;;;;;;;;;;;;;;;5057946;28;19928;-77
2024/02/26 14:47:44;;;;;;;;;;;;;;;;;;5062642;28;20003;-78
2024/02/26 14:50:11;;;;;;;;;;;;;;;;;;5061510;28;20433;-77
2024/02/26 14:52:37;;;;;;;;;;;;;;;;;;5062493;28;20014;-77
2024/02/26 14:55:02;;;;;;;;;;;;;;;;;;5062377;28;19999;-79
2024/02/26 14:57:28;;;;;;;;;;;;;;;;;;5064973;28;19978;-79
2024/02/26 14:59:54;;;;;;;;;;;;;;;;;;5063583;28;19916;-83
2024/02/26 15:02:20;;;;;;;;;;;;;;;;;;5062463;28;20689;-79
2024/02/26 15:04:46;;;;;;;;;;;;;;;;;;5062288;28;19935;-74
2024/02/26 15:07:12;;;;;;;;;;;;;;;;;;5063588;28;19912;-76
2024/02/26 15:09:39;;;;;;;;;;;;;;;;;;5061976;28;20041;-77
2024/02/26 15:12:07;;;;;;;;;;;;;;;;;;5065663;28;19996;-75
2024/02/26 15:14:33;;;;;;;;;;;;;;;;;;5069737;28;19923;-75
2024/02/26 15:16:59;;;;;;;;;;;;;;;;;;5071235;28;19913;-74
2024/02/26 15:19:25;;;;;;;;;;;;;;;;;;5059996;28;19957;-75
2024/02/26 15:21:51;;;;;;;;;;;;;;;;;;5066970;28;19920;-76
2024/02/26 15:24:17;;;;;;;;;;;;;;;;;;5069518;28;19917;-76
2024/02/26 15:26:43;;;;;;;;;;;;;;;;;;5068817;28;19935;-76
2024/02/26 15:29:09;;;;;;;;;;;;;;;;;;5069229;28;19912;-74
2024/02/26 15:31:34;;;;;;;;;;;;;;;;;;5068324;28;19917;-76
2024/02/26 15:34:00;;;;;;;;;;;;;;;;;;5068326;28;19927;-76
2024/02/26 15:36:26;;;;;;;;;;;;;;;;;;5067289;28;20003;-73
2024/02/26 15:38:52;;;;;;;;;;;;;;;;;;5058761;28;19913;-74
2024/02/26 15:41:18;;;;;;;;;;;;;;;;;;5060512;28;20058;-76
2024/02/26 15:43:44;;;;;;;;;;;;;;;;;;5061039;28;20378;-76
2024/02/26 15:46:10;;;;;;;;;;;;;;;;;;5062901;28;20425;-76
2024/02/26 15:48:35;;;;;;;;;;;;;;;;;;5059723;28;19917;-76
2024/02/26 15:51:01;;;;;;;;;;;;;;;;;;5057239;28;19912;-75
2024/02/26 15:53:27;;;;;;;;;;;;;;;;;;5058923;28;19961;-75
2024/02/26 15:55:53;;;;;;;;;;;;;;;;;;5059904;28;19923;-75
2024/02/26 15:58:19;;;;;;;;;;;;;;;;;;5060329;28;20383;-76
2024/02/26 16:00:44;;;;;;;;;;;;;;;;;;5058069;28;20374;-75
2024/02/26 16:03:10;;;;;;;;;;;;;;;;;;5059024;28;20421;-75
2024/02/26 16:05:36;;;;;;;;;;;;;;;;;;5059771;28;19914;-75
2024/02/26 16:08:03;;;;;;;;;;;;;;;;;;5059349;28;19954;-76
2024/02/26 16:10:30;;;;;;;;;;;;;;;;;;5061931;28;19916;-75
2024/02/26 16:12:56;;;;;;;;;;;;;;;;;;5059291;28;19920;-76
2024/02/26 16:15:22;;;;;;;;;;;;;;;;;;5059959;28;19912;-76
2024/02/26 16:17:47;;;;;;;;;;;;;;;;;;5058068;28;19917;-76
2024/02/26 16:20:14;;;;;;;;;;;;;;;;;;5056020;28;20559;-75
2024/02/26 16:22:41;;;;;;;;;;;;;;;;;;5057453;28;19959;-75
2024/02/26 16:25:07;;;;;;;;;;;;;;;;;;5058146;28;19924;-76
2024/02/26 16:27:32;;;;;;;;;;;;;;;;;;5043262;28;19920;-75
2024/02/26 16:29:58;;;;;;;;;;;;;;;;;;5064580;28;19919;-76
2024/02/26 16:32:24;;;;;;;;;;;;;;;;;;5066707;28;19916;-75
2024/02/26 16:34:50;;;;;;;;;;;;;;;;;;5066969;28;20295;-75
2024/02/26 16:37:16;;;;;;;;;;;;;;;;;;5063105;28;19920;-76